Flight Track Log - Related Links

Times and Time Zones

All times are in EDT time to prevent confusion due to time zone crossing. See the GJS3649 flight status page for this flight to view local times or setup timezone preferences in your user account.

Time Position Orientation Groundspeed Altitude Reporting Facility
EDT Latitude Longitude Course Direction KTS MPH feet Rate Location/Type
Mon 07:18:20 PM 41.9458 -72.7025 236° Southwest 158 182 900  Level Boston Center
Mon 07:18:38 PM 41.9542 -72.7136 315° West 135 155 1,600 2,357 Climbing Boston Center
Mon 07:19:44 PM 41.9853 -72.7725 305° West 167 192 4,200 2,000 Climbing Boston Center
Mon 07:20:44 PM 41.9808 -72.8422 265° West 180 207 5,800 2,300 Climbing Boston Center
Mon 07:21:00 PM 41.9026 -73.1969 265° West  Level FlightAware Approximate
Mon 07:21:44 PM 41.9636 -72.9369 256° West 212 244 8,800  Level Boston Center
Mon 07:22:00 PM 41.8888 -73.3224 236° Southwest  Level FlightAware Approximate
Mon 07:22:44 PM 41.9508 -73.0347 260° West 258 297 11,700  Level Boston Center
Mon 07:23:00 PM 41.8348 -73.4305 236° Southwest  Level FlightAware Approximate
Mon 07:23:44 PM 41.9333 -73.1517 259° West 289 333 14,600  Level Boston Center
Mon 07:24:44 PM 41.9203 -73.2464 260° West 295 339 17,300 2,400 Climbing Boston Center
Mon 07:25:44 PM 41.8861 -73.3436 245° Southwest 295 339 19,400 2,300 Climbing Boston Center
Mon 07:26:44 PM 41.8294 -73.4153 223° Southwest 288 331 21,900 2,300 Climbing Boston Center
Mon 07:27:44 PM 41.7703 -73.4783 218° Southwest 281 323 24,000 1,458 Climbing Boston Center
Mon 07:29:41 PM 41.6400 -73.6025 215° Southwest 282 325 26,200 1,045 Climbing New York Center
Mon 07:30:42 PM 41.5717 -73.6717 217° Southwest 296 341 27,100 934 Climbing New York Center
Mon 07:31:43 PM 41.4928 -73.7486 216° Southwest 328 377 28,100 1,008 Climbing New York Center
Mon 07:32:41 PM 41.4136 -73.8281 217° Southwest 346 398 29,100 908 Climbing New York Center
Mon 07:33:42 PM 41.3503 -73.9356 232° Southwest 357 411 29,900 446 Climbing New York Center
Mon 07:34:42 PM 41.2950 -74.0544 238° Southwest 374 430 30,000 50 Climbing New York Center
Mon 07:35:41 PM 41.2375 -74.1758 238° Southwest 386 444 30,000  Level New York Center
Mon 07:36:41 PM 41.1800 -74.2886 236° Southwest 386 444 30,000  Level New York Center
Mon 07:37:43 PM 41.1244 -74.4042 237° Southwest 381 438 30,000  Level New York Center
Mon 07:38:41 PM 41.0664 -74.5247 237° Southwest 381 438 30,000  Level New York Center
Mon 07:39:42 PM 41.0067 -74.6369 235° Southwest 381 438 30,000  Level New York Center
Mon 07:40:42 PM 40.9464 -74.7544 236° Southwest 381 438 30,000  Level New York Center
Mon 07:41:43 PM 40.8844 -74.8633 233° Southwest 386 444 30,000 -151 Level New York Center
Mon 07:42:41 PM 40.8217 -74.9858 236° Southwest 391 450 29,700 -712 Descending New York Center
Mon 07:43:41 PM 40.7636 -75.1000 236° Southwest 391 450 28,600 -1,041 Descending New York Center
Mon 07:44:42 PM 40.7256 -75.2261 248° West 372 428 27,600 -934 Descending New York Center
Mon 07:45:43 PM 40.6897 -75.3469 249° West 366 421 26,700 -958 Descending New York Center
Mon 07:46:41 PM 40.6517 -75.4650 247° West 361 415 25,700 -1,008 Descending New York Center
Mon 07:47:42 PM 40.6072 -75.5822 243° Southwest 361 415 24,700 -1,000 Descending New York Center
Mon 07:48:41 PM 40.5428 -75.6814 229° Southwest 356 410 23,700 -1,000 Descending New York Center
Mon 07:49:42 PM 40.4761 -75.7775 228° Southwest 356 410 22,700 -984 Descending New York Center
Mon 07:50:43 PM 40.4097 -75.8708 227° Southwest 361 415 21,700 -1,008 Descending New York Center
Mon 07:51:41 PM 40.3406 -75.9722 228° Southwest 368 423 20,700 -1,000 Descending New York Center
Mon 07:52:43 PM 40.2719 -76.0675 227° Southwest 373 429 19,700 -995 Descending New York Center
Mon 07:55:06 PM 40.1167 -76.3167 231° Southwest 351 404 17,300 -798 Descending Potomac TRACON
Mon 07:56:06 PM 40.0667 -76.4167 237° Southwest 326 375 17,000 -550 Descending Potomac TRACON
Mon 07:57:06 PM 40.0167 -76.5167 237° Southwest 320 368 16,200 -900 Descending Potomac TRACON
Mon 07:58:06 PM 39.9667 -76.6167 237° Southwest 315 362 15,200 -600 Descending Potomac TRACON
Mon 07:59:06 PM 39.9333 -76.7000 242° Southwest 302 348 15,000 -100 Descending Potomac TRACON
Mon 08:00:06 PM 39.8833 -76.8000 237° Southwest 295 339 15,000  Level Potomac TRACON
Mon 08:01:06 PM 39.8500 -76.8833 243° Southwest 291 335 15,000  Level Potomac TRACON
Mon 08:02:01 PM 39.8000 -76.9667 232° Southwest 290 334 15,000  Level Potomac TRACON
Mon 08:03:07 PM 39.7667 -77.0667 247° West 291 335 15,000 -624 Level Potomac TRACON
Mon 08:04:06 PM 39.7167 -77.1500 232° Southwest 290 334 13,700 -1,421 Descending Potomac TRACON
Mon 08:05:01 PM 39.6500 -77.2000 210° Southwest 295 339 12,300 -1,565 Descending Potomac TRACON
Mon 08:06:01 PM 39.5833 -77.2500 210° Southwest 287 330 10,700 -1,550 Descending Potomac TRACON
Mon 08:07:01 PM 39.5167 -77.3000 210° Southwest 282 325 9,200 -1,345 Descending Potomac TRACON
Mon 08:08:55 PM 39.3833 -77.3667 201° Southwest 280 322 6,800 -1,207 Descending Potomac TRACON
Mon 08:09:55 PM 39.3000 -77.3667 180° South 277 319 5,700 -1,100 Descending Potomac TRACON
Mon 08:10:55 PM 39.2333 -77.3667 180° South 276 318 4,600 -800 Descending Potomac TRACON
Mon 08:11:55 PM 39.1500 -77.3500 171° South 278 320 4,100 -250 Descending Potomac TRACON
Mon 08:12:55 PM 39.0833 -77.3500 180° South 274 315 4,100  Level Potomac TRACON
Mon 08:13:55 PM 39.0000 -77.3500 180° South 272 313 4,100  Level Potomac TRACON
Mon 08:14:55 PM 38.9333 -77.3500 180° South 275 316 4,100 -200 Level Potomac TRACON
Mon 08:15:55 PM 38.8500 -77.3500 180° South 232 267 3,700 -835 Descending Potomac TRACON
Mon 08:16:50 PM 38.8333 -77.4000 247° West 171 197 2,500 -1,309 Descending Potomac TRACON

Login

Don't have an account? Register now (free) for customized features, flight alerts, and more!